sensor_id;sensor_type;location;lat;lon;timestamp;P1;durP1;ratioP1;P2;durP2;ratioP2
51686;SDS011;37774;52.192;4.584;2023-03-12T00:00:11;6.68;;;2.95;;
51686;SDS011;37774;52.192;4.584;2023-03-12T00:02:39;5.20;;;2.38;;
51686;SDS011;37774;52.192;4.584;2023-03-12T00:05:06;6.40;;;2.60;;
51686;SDS011;37774;52.192;4.584;2023-03-12T00:07:33;4.25;;;2.20;;
51686;SDS011;37774;52.192;4.584;2023-03-12T00:10:02;5.15;;;2.22;;
51686;SDS011;37774;52.192;4.584;2023-03-12T00:12:28;7.57;;;2.72;;
51686;SDS011;37774;52.192;4.584;2023-03-12T00:14:55;5.60;;;2.65;;
51686;SDS011;37774;52.192;4.584;2023-03-12T00:17:22;8.85;;;2.63;;
51686;SDS011;37774;52.192;4.584;2023-03-12T00:19:50;4.78;;;2.30;;
51686;SDS011;37774;52.192;4.584;2023-03-12T00:22:17;7.25;;;2.03;;
51686;SDS011;37774;52.192;4.584;2023-03-12T00:24:48;10.35;;;2.63;;
51686;SDS011;37774;52.192;4.584;2023-03-12T00:27:17;8.55;;;3.42;;
51686;SDS011;37774;52.192;4.584;2023-03-12T00:29:44;9.80;;;3.47;;
51686;SDS011;37774;52.192;4.584;2023-03-12T00:32:11;8.23;;;3.55;;
51686;SDS011;37774;52.192;4.584;2023-03-12T00:34:37;8.10;;;2.63;;
51686;SDS011;37774;52.192;4.584;2023-03-12T00:37:04;8.20;;;3.92;;
51686;SDS011;37774;52.192;4.584;2023-03-12T00:39:33;13.63;;;4.55;;
51686;SDS011;37774;52.192;4.584;2023-03-12T00:42:00;12.60;;;3.65;;
51686;SDS011;37774;52.192;4.584;2023-03-12T00:44:28;16.80;;;4.22;;
51686;SDS011;37774;52.192;4.584;2023-03-12T00:46:55;19.75;;;4.22;;
51686;SDS011;37774;52.192;4.584;2023-03-12T00:49:22;8.15;;;4.72;;
51686;SDS011;37774;52.192;4.584;2023-03-12T00:51:49;5.95;;;3.35;;
51686;SDS011;37774;52.192;4.584;2023-03-12T00:54:16;6.82;;;3.75;;
51686;SDS011;37774;52.192;4.584;2023-03-12T00:56:43;5.75;;;3.35;;
51686;SDS011;37774;52.192;4.584;2023-03-12T00:59:11;8.10;;;4.00;;
51686;SDS011;37774;52.192;4.584;2023-03-12T01:01:39;11.93;;;3.70;;
51686;SDS011;37774;52.192;4.584;2023-03-12T01:04:06;6.57;;;3.92;;
51686;SDS011;37774;52.192;4.584;2023-03-12T01:06:33;6.60;;;3.67;;
51686;SDS011;37774;52.192;4.584;2023-03-12T01:09:00;6.97;;;3.33;;
51686;SDS011;37774;52.192;4.584;2023-03-12T01:11:29;17.58;;;4.13;;
51686;SDS011;37774;52.192;4.584;2023-03-12T01:13:57;6.90;;;3.42;;
51686;SDS011;37774;52.192;4.584;2023-03-12T01:16:24;12.23;;;4.28;;
51686;SDS011;37774;52.192;4.584;2023-03-12T01:18:53;8.18;;;3.97;;
51686;SDS011;37774;52.192;4.584;2023-03-12T01:21:21;7.10;;;3.03;;
51686;SDS011;37774;52.192;4.584;2023-03-12T01:23:48;5.82;;;3.38;;
51686;SDS011;37774;52.192;4.584;2023-03-12T01:26:15;17.77;;;3.90;;
51686;SDS011;37774;52.192;4.584;2023-03-12T01:28:42;9.95;;;4.15;;
51686;SDS011;37774;52.192;4.584;2023-03-12T01:31:09;9.07;;;3.40;;
51686;SDS011;37774;52.192;4.584;2023-03-12T01:33:36;10.02;;;4.65;;
51686;SDS011;37774;52.192;4.584;2023-03-12T01:36:11;7.20;;;3.45;;
51686;SDS011;37774;52.192;4.584;2023-03-12T01:38:42;9.55;;;3.25;;
51686;SDS011;37774;52.192;4.584;2023-03-12T01:41:09;11.02;;;4.22;;
51686;SDS011;37774;52.192;4.584;2023-03-12T01:43:36;5.93;;;3.22;;
51686;SDS011;37774;52.192;4.584;2023-03-12T01:46:06;8.68;;;3.83;;
51686;SDS011;37774;52.192;4.584;2023-03-12T01:48:49;8.77;;;4.35;;
51686;SDS011;37774;52.192;4.584;2023-03-12T01:51:20;7.10;;;4.15;;
51686;SDS011;37774;52.192;4.584;2023-03-12T01:53:50;7.50;;;2.50;;
51686;SDS011;37774;52.192;4.584;2023-03-12T01:56:22;7.45;;;3.80;;
51686;SDS011;37774;52.192;4.584;2023-03-12T01:58:54;8.63;;;3.55;;
51686;SDS011;37774;52.192;4.584;2023-03-12T02:01:25;8.52;;;3.45;;
51686;SDS011;37774;52.192;4.584;2023-03-12T02:03:53;12.63;;;3.33;;
51686;SDS011;37774;52.192;4.584;2023-03-12T02:06:24;10.05;;;3.40;;
51686;SDS011;37774;52.192;4.584;2023-03-12T02:08:54;7.72;;;3.97;;
51686;SDS011;37774;52.192;4.584;2023-03-12T02:11:23;18.75;;;3.58;;
51686;SDS011;37774;52.192;4.584;2023-03-12T02:13:50;10.82;;;3.78;;
51686;SDS011;37774;52.192;4.584;2023-03-12T02:16:17;27.88;;;3.70;;
51686;SDS011;37774;52.192;4.584;2023-03-12T02:18:44;11.00;;;3.55;;
51686;SDS011;37774;52.192;4.584;2023-03-12T02:21:13;5.22;;;3.40;;
51686;SDS011;37774;52.192;4.584;2023-03-12T02:23:46;10.27;;;2.88;;
51686;SDS011;37774;52.192;4.584;2023-03-12T02:26:21;18.60;;;3.97;;
51686;SDS011;37774;52.192;4.584;2023-03-12T02:28:50;7.95;;;3.60;;
51686;SDS011;37774;52.192;4.584;2023-03-12T02:31:19;3.63;;;2.47;;
51686;SDS011;37774;52.192;4.584;2023-03-12T02:33:49;12.10;;;3.55;;
51686;SDS011;37774;52.192;4.584;2023-03-12T02:36:17;4.55;;;2.90;;
51686;SDS011;37774;52.192;4.584;2023-03-12T02:38:44;9.65;;;2.90;;
51686;SDS011;37774;52.192;4.584;2023-03-12T02:41:14;5.78;;;3.70;;
51686;SDS011;37774;52.192;4.584;2023-03-12T02:43:46;6.18;;;2.78;;
51686;SDS011;37774;52.192;4.584;2023-03-12T02:46:15;7.80;;;3.70;;
51686;SDS011;37774;52.192;4.584;2023-03-12T02:48:42;16.73;;;3.67;;
51686;SDS011;37774;52.192;4.584;2023-03-12T02:51:09;10.63;;;2.70;;
51686;SDS011;37774;52.192;4.584;2023-03-12T02:53:36;5.65;;;3.05;;
51686;SDS011;37774;52.192;4.584;2023-03-12T02:56:03;11.32;;;3.40;;
51686;SDS011;37774;52.192;4.584;2023-03-12T02:58:30;9.43;;;3.53;;
51686;SDS011;37774;52.192;4.584;2023-03-12T03:00:58;10.25;;;2.45;;
51686;SDS011;37774;52.192;4.584;2023-03-12T03:03:25;5.97;;;2.83;;
51686;SDS011;37774;52.192;4.584;2023-03-12T03:05:52;10.82;;;3.40;;
51686;SDS011;37774;52.192;4.584;2023-03-12T03:08:19;5.90;;;2.83;;
51686;SDS011;37774;52.192;4.584;2023-03-12T03:10:45;11.43;;;2.45;;
51686;SDS011;37774;52.192;4.584;2023-03-12T03:13:12;4.38;;;2.72;;
51686;SDS011;37774;52.192;4.584;2023-03-12T03:15:39;6.82;;;2.72;;
51686;SDS011;37774;52.192;4.584;2023-03-12T03:18:07;7.78;;;2.60;;
51686;SDS011;37774;52.192;4.584;2023-03-12T03:20:34;6.25;;;3.13;;
51686;SDS011;37774;52.192;4.584;2023-03-12T03:23:01;8.38;;;2.92;;
51686;SDS011;37774;52.192;4.584;2023-03-12T03:25:28;8.52;;;3.10;;
51686;SDS011;37774;52.192;4.584;2023-03-12T03:27:55;8.05;;;2.92;;
51686;SDS011;37774;52.192;4.584;2023-03-12T03:30:22;11.98;;;3.28;;
51686;SDS011;37774;52.192;4.584;2023-03-12T03:32:49;4.65;;;2.83;;
51686;SDS011;37774;52.192;4.584;2023-03-12T03:35:17;8.50;;;2.55;;
51686;SDS011;37774;52.192;4.584;2023-03-12T03:37:46;6.70;;;2.17;;
51686;SDS011;37774;52.192;4.584;2023-03-12T03:40:12;11.88;;;2.92;;
51686;SDS011;37774;52.192;4.584;2023-03-12T03:42:39;9.05;;;1.98;;
51686;SDS011;37774;52.192;4.584;2023-03-12T03:45:06;8.23;;;2.15;;
51686;SDS011;37774;52.192;4.584;2023-03-12T03:47:34;8.82;;;2.22;;
51686;SDS011;37774;52.192;4.584;2023-03-12T03:50:02;12.63;;;2.50;;
51686;SDS011;37774;52.192;4.584;2023-03-12T03:52:32;16.30;;;2.42;;
51686;SDS011;37774;52.192;4.584;2023-03-12T03:54:59;8.63;;;2.00;;
51686;SDS011;37774;52.192;4.584;2023-03-12T03:57:26;7.22;;;1.77;;
51686;SDS011;37774;52.192;4.584;2023-03-12T03:59:53;8.68;;;2.13;;
51686;SDS011;37774;52.192;4.584;2023-03-12T04:02:20;12.25;;;2.30;;
51686;SDS011;37774;52.192;4.584;2023-03-12T04:04:47;8.35;;;2.17;;
51686;SDS011;37774;52.192;4.584;2023-03-12T04:07:15;7.00;;;2.33;;
51686;SDS011;37774;52.192;4.584;2023-03-12T04:09:43;2.55;;;1.75;;
51686;SDS011;37774;52.192;4.584;2023-03-12T04:12:10;6.80;;;2.92;;
51686;SDS011;37774;52.192;4.584;2023-03-12T04:14:40;6.05;;;2.15;;
51686;SDS011;37774;52.192;4.584;2023-03-12T04:17:07;4.22;;;1.80;;
51686;SDS011;37774;52.192;4.584;2023-03-12T04:19:35;10.10;;;2.28;;
51686;SDS011;37774;52.192;4.584;2023-03-12T04:22:02;14.18;;;2.83;;
51686;SDS011;37774;52.192;4.584;2023-03-12T04:24:29;7.65;;;1.52;;
51686;SDS011;37774;52.192;4.584;2023-03-12T04:26:57;5.45;;;1.83;;
51686;SDS011;37774;52.192;4.584;2023-03-12T04:29:24;11.25;;;2.28;;
51686;SDS011;37774;52.192;4.584;2023-03-12T04:31:52;3.97;;;2.35;;
51686;SDS011;37774;52.192;4.584;2023-03-12T04:34:19;10.20;;;2.45;;
51686;SDS011;37774;52.192;4.584;2023-03-12T04:36:46;13.77;;;2.92;;
51686;SDS011;37774;52.192;4.584;2023-03-12T04:39:15;6.43;;;2.58;;
51686;SDS011;37774;52.192;4.584;2023-03-12T04:41:42;5.93;;;2.22;;
51686;SDS011;37774;52.192;4.584;2023-03-12T04:44:11;6.53;;;2.58;;
51686;SDS011;37774;52.192;4.584;2023-03-12T04:46:37;4.70;;;2.85;;
51686;SDS011;37774;52.192;4.584;2023-03-12T04:49:04;4.90;;;2.20;;
51686;SDS011;37774;52.192;4.584;2023-03-12T04:51:31;5.88;;;2.55;;
51686;SDS011;37774;52.192;4.584;2023-03-12T04:53:58;18.25;;;3.20;;
51686;SDS011;37774;52.192;4.584;2023-03-12T04:56:25;7.63;;;2.70;;
51686;SDS011;37774;52.192;4.584;2023-03-12T04:58:52;6.47;;;2.92;;
51686;SDS011;37774;52.192;4.584;2023-03-12T05:01:22;5.70;;;2.97;;
51686;SDS011;37774;52.192;4.584;2023-03-12T05:03:50;9.90;;;3.30;;
51686;SDS011;37774;52.192;4.584;2023-03-12T05:06:17;12.48;;;3.90;;
51686;SDS011;37774;52.192;4.584;2023-03-12T05:08:44;5.75;;;2.78;;
51686;SDS011;37774;52.192;4.584;2023-03-12T05:11:12;12.73;;;3.30;;
51686;SDS011;37774;52.192;4.584;2023-03-12T05:13:39;6.75;;;3.25;;
51686;SDS011;37774;52.192;4.584;2023-03-12T05:16:07;8.80;;;4.05;;
51686;SDS011;37774;52.192;4.584;2023-03-12T05:18:36;6.70;;;2.92;;
51686;SDS011;37774;52.192;4.584;2023-03-12T05:21:03;9.07;;;3.30;;
51686;SDS011;37774;52.192;4.584;2023-03-12T05:23:31;10.43;;;3.30;;
51686;SDS011;37774;52.192;4.584;2023-03-12T05:25:58;7.40;;;3.78;;
51686;SDS011;37774;52.192;4.584;2023-03-12T05:28:25;7.50;;;3.42;;
51686;SDS011;37774;52.192;4.584;2023-03-12T05:30:53;8.00;;;3.83;;
51686;SDS011;37774;52.192;4.584;2023-03-12T05:33:20;7.05;;;3.97;;
51686;SDS011;37774;52.192;4.584;2023-03-12T05:35:48;7.15;;;4.07;;
51686;SDS011;37774;52.192;4.584;2023-03-12T05:38:15;8.10;;;3.75;;
51686;SDS011;37774;52.192;4.584;2023-03-12T05:40:49;11.85;;;5.28;;
51686;SDS011;37774;52.192;4.584;2023-03-12T05:43:16;19.67;;;3.80;;
51686;SDS011;37774;52.192;4.584;2023-03-12T05:45:43;18.48;;;5.32;;
51686;SDS011;37774;52.192;4.584;2023-03-12T05:48:09;10.38;;;4.60;;
51686;SDS011;37774;52.192;4.584;2023-03-12T05:50:36;9.40;;;3.80;;
51686;SDS011;37774;52.192;4.584;2023-03-12T05:53:05;5.68;;;4.05;;
51686;SDS011;37774;52.192;4.584;2023-03-12T05:55:33;8.48;;;4.55;;
51686;SDS011;37774;52.192;4.584;2023-03-12T05:58:01;10.57;;;4.53;;
51686;SDS011;37774;52.192;4.584;2023-03-12T06:00:28;13.20;;;5.70;;
51686;SDS011;37774;52.192;4.584;2023-03-12T06:02:55;8.68;;;4.38;;
51686;SDS011;37774;52.192;4.584;2023-03-12T06:05:21;13.55;;;4.95;;
51686;SDS011;37774;52.192;4.584;2023-03-12T06:07:48;13.13;;;5.80;;
51686;SDS011;37774;52.192;4.584;2023-03-12T06:10:17;9.30;;;5.30;;
51686;SDS011;37774;52.192;4.584;2023-03-12T06:12:44;7.50;;;4.45;;
51686;SDS011;37774;52.192;4.584;2023-03-12T06:15:10;14.02;;;5.90;;
51686;SDS011;37774;52.192;4.584;2023-03-12T06:17:37;9.63;;;5.45;;
51686;SDS011;37774;52.192;4.584;2023-03-12T06:20:05;14.07;;;5.07;;
51686;SDS011;37774;52.192;4.584;2023-03-12T06:22:33;13.27;;;5.60;;
51686;SDS011;37774;52.192;4.584;2023-03-12T06:25:00;16.67;;;6.75;;
51686;SDS011;37774;52.192;4.584;2023-03-12T06:27:28;17.65;;;7.15;;
51686;SDS011;37774;52.192;4.584;2023-03-12T06:29:55;26.52;;;7.28;;
51686;SDS011;37774;52.192;4.584;2023-03-12T06:32:21;11.90;;;6.78;;
51686;SDS011;37774;52.192;4.584;2023-03-12T06:34:48;13.10;;;6.47;;
51686;SDS011;37774;52.192;4.584;2023-03-12T06:37:15;16.45;;;6.57;;
51686;SDS011;37774;52.192;4.584;2023-03-12T06:39:42;12.32;;;7.40;;
51686;SDS011;37774;52.192;4.584;2023-03-12T06:42:09;13.43;;;7.63;;
51686;SDS011;37774;52.192;4.584;2023-03-12T06:44:38;13.85;;;7.13;;
51686;SDS011;37774;52.192;4.584;2023-03-12T06:47:06;16.35;;;6.85;;
51686;SDS011;37774;52.192;4.584;2023-03-12T06:49:32;17.55;;;7.35;;
51686;SDS011;37774;52.192;4.584;2023-03-12T06:52:00;24.65;;;8.32;;
51686;SDS011;37774;52.192;4.584;2023-03-12T06:54:27;15.35;;;6.70;;
51686;SDS011;37774;52.192;4.584;2023-03-12T06:56:54;14.95;;;6.90;;
51686;SDS011;37774;52.192;4.584;2023-03-12T06:59:21;18.23;;;7.55;;
51686;SDS011;37774;52.192;4.584;2023-03-12T07:01:49;14.15;;;6.85;;
51686;SDS011;37774;52.192;4.584;2023-03-12T07:04:16;15.07;;;7.45;;
51686;SDS011;37774;52.192;4.584;2023-03-12T07:06:43;19.25;;;7.85;;
51686;SDS011;37774;52.192;4.584;2023-03-12T07:09:14;22.40;;;8.10;;
51686;SDS011;37774;52.192;4.584;2023-03-12T07:11:41;20.63;;;9.07;;
51686;SDS011;37774;52.192;4.584;2023-03-12T07:14:08;20.38;;;9.02;;
51686;SDS011;37774;52.192;4.584;2023-03-12T07:16:34;15.00;;;6.93;;
51686;SDS011;37774;52.192;4.584;2023-03-12T07:19:03;19.77;;;8.63;;
51686;SDS011;37774;52.192;4.584;2023-03-12T07:21:30;14.30;;;7.32;;
51686;SDS011;37774;52.192;4.584;2023-03-12T07:23:57;20.05;;;7.60;;
51686;SDS011;37774;52.192;4.584;2023-03-12T07:26:25;23.48;;;8.23;;
51686;SDS011;37774;52.192;4.584;2023-03-12T07:28:51;14.45;;;8.20;;
51686;SDS011;37774;52.192;4.584;2023-03-12T07:31:18;18.55;;;8.48;;
51686;SDS011;37774;52.192;4.584;2023-03-12T07:33:45;19.02;;;9.23;;
51686;SDS011;37774;52.192;4.584;2023-03-12T07:36:13;21.00;;;10.68;;
51686;SDS011;37774;52.192;4.584;2023-03-12T07:38:40;24.23;;;10.45;;
51686;SDS011;37774;52.192;4.584;2023-03-12T07:41:07;20.63;;;9.27;;
51686;SDS011;37774;52.192;4.584;2023-03-12T07:43:34;26.80;;;11.05;;
51686;SDS011;37774;52.192;4.584;2023-03-12T07:46:01;29.02;;;11.15;;
51686;SDS011;37774;52.192;4.584;2023-03-12T07:48:27;25.85;;;12.90;;
51686;SDS011;37774;52.192;4.584;2023-03-12T07:50:54;20.00;;;10.25;;
51686;SDS011;37774;52.192;4.584;2023-03-12T07:53:22;25.75;;;11.38;;
51686;SDS011;37774;52.192;4.584;2023-03-12T07:55:49;25.67;;;11.88;;
51686;SDS011;37774;52.192;4.584;2023-03-12T07:58:16;33.22;;;13.13;;
51686;SDS011;37774;52.192;4.584;2023-03-12T08:00:43;39.47;;;12.57;;
51686;SDS011;37774;52.192;4.584;2023-03-12T08:03:11;35.15;;;14.35;;
51686;SDS011;37774;52.192;4.584;2023-03-12T08:05:37;32.30;;;13.48;;
51686;SDS011;37774;52.192;4.584;2023-03-12T08:08:04;39.72;;;14.23;;
51686;SDS011;37774;52.192;4.584;2023-03-12T08:10:33;37.08;;;16.02;;
51686;SDS011;37774;52.192;4.584;2023-03-12T08:13:00;39.88;;;16.10;;
51686;SDS011;37774;52.192;4.584;2023-03-12T08:15:27;34.13;;;15.98;;
51686;SDS011;37774;52.192;4.584;2023-03-12T08:17:53;32.97;;;15.65;;
51686;SDS011;37774;52.192;4.584;2023-03-12T08:20:20;40.75;;;15.45;;
51686;SDS011;37774;52.192;4.584;2023-03-12T08:22:47;41.38;;;17.23;;
51686;SDS011;37774;52.192;4.584;2023-03-12T08:25:14;35.28;;;17.13;;
51686;SDS011;37774;52.192;4.584;2023-03-12T08:27:44;39.80;;;16.17;;
51686;SDS011;37774;52.192;4.584;2023-03-12T08:30:11;35.22;;;16.13;;
51686;SDS011;37774;52.192;4.584;2023-03-12T08:32:38;45.28;;;16.88;;
51686;SDS011;37774;52.192;4.584;2023-03-12T08:35:05;44.72;;;17.77;;
51686;SDS011;37774;52.192;4.584;2023-03-12T08:37:34;46.10;;;17.35;;
51686;SDS011;37774;52.192;4.584;2023-03-12T08:40:01;39.40;;;16.40;;
51686;SDS011;37774;52.192;4.584;2023-03-12T08:42:33;37.38;;;15.02;;
51686;SDS011;37774;52.192;4.584;2023-03-12T08:45:01;48.78;;;15.85;;
51686;SDS011;37774;52.192;4.584;2023-03-12T08:47:28;43.70;;;17.75;;
51686;SDS011;37774;52.192;4.584;2023-03-12T08:49:55;51.20;;;17.13;;
51686;SDS011;37774;52.192;4.584;2023-03-12T08:52:22;34.70;;;15.55;;
51686;SDS011;37774;52.192;4.584;2023-03-12T08:54:49;40.60;;;15.93;;
51686;SDS011;37774;52.192;4.584;2023-03-12T08:57:16;42.28;;;15.77;;
51686;SDS011;37774;52.192;4.584;2023-03-12T08:59:43;49.10;;;15.40;;
51686;SDS011;37774;52.192;4.584;2023-03-12T09:02:11;34.35;;;15.90;;
51686;SDS011;37774;52.192;4.584;2023-03-12T09:04:38;49.58;;;17.20;;
51686;SDS011;37774;52.192;4.584;2023-03-12T09:07:05;31.15;;;13.43;;
51686;SDS011;37774;52.192;4.584;2023-03-12T09:09:33;47.63;;;15.07;;
51686;SDS011;37774;52.192;4.584;2023-03-12T09:12:00;29.00;;;11.98;;
51686;SDS011;37774;52.192;4.584;2023-03-12T09:14:27;37.38;;;13.38;;
51686;SDS011;37774;52.192;4.584;2023-03-12T09:16:54;32.17;;;8.38;;
51686;SDS011;37774;52.192;4.584;2023-03-12T09:19:22;21.80;;;6.22;;
51686;SDS011;37774;52.192;4.584;2023-03-12T09:21:48;28.67;;;4.50;;
51686;SDS011;37774;52.192;4.584;2023-03-12T09:24:15;26.58;;;3.75;;
51686;SDS011;37774;52.192;4.584;2023-03-12T09:26:42;20.63;;;3.58;;
51686;SDS011;37774;52.192;4.584;2023-03-12T09:29:09;23.27;;;5.03;;
51686;SDS011;37774;52.192;4.584;2023-03-12T09:31:35;34.28;;;4.40;;
51686;SDS011;37774;52.192;4.584;2023-03-12T09:34:02;22.52;;;3.50;;
51686;SDS011;37774;52.192;4.584;2023-03-12T09:36:31;20.73;;;3.92;;
51686;SDS011;37774;52.192;4.584;2023-03-12T09:38:58;22.35;;;4.05;;
51686;SDS011;37774;52.192;4.584;2023-03-12T09:41:27;24.45;;;4.97;;
51686;SDS011;37774;52.192;4.584;2023-03-12T09:43:56;29.00;;;4.05;;
51686;SDS011;37774;52.192;4.584;2023-03-12T09:46:28;49.33;;;5.13;;
51686;SDS011;37774;52.192;4.584;2023-03-12T09:49:01;17.27;;;3.00;;
51686;SDS011;37774;52.192;4.584;2023-03-12T09:51:37;39.53;;;6.07;;
51686;SDS011;37774;52.192;4.584;2023-03-12T09:54:07;19.70;;;4.88;;
51686;SDS011;37774;52.192;4.584;2023-03-12T09:56:45;16.55;;;2.95;;
51686;SDS011;37774;52.192;4.584;2023-03-12T09:59:12;25.23;;;4.20;;
51686;SDS011;37774;52.192;4.584;2023-03-12T10:01:40;23.02;;;3.70;;
51686;SDS011;37774;52.192;4.584;2023-03-12T10:04:20;27.65;;;5.38;;
51686;SDS011;37774;52.192;4.584;2023-03-12T10:06:57;18.38;;;4.40;;
51686;SDS011;37774;52.192;4.584;2023-03-12T10:09:34;42.67;;;4.90;;
51686;SDS011;37774;52.192;4.584;2023-03-12T10:12:17;25.85;;;3.38;;
51686;SDS011;37774;52.192;4.584;2023-03-12T10:14:51;25.85;;;3.35;;
51686;SDS011;37774;52.192;4.584;2023-03-12T10:17:30;34.58;;;4.13;;
51686;SDS011;37774;52.192;4.584;2023-03-12T10:23:02;22.75;;;4.10;;
51686;SDS011;37774;52.192;4.584;2023-03-12T10:25:34;22.98;;;3.83;;
51686;SDS011;37774;52.192;4.584;2023-03-12T10:28:10;41.38;;;4.38;;
51686;SDS011;37774;52.192;4.584;2023-03-12T10:30:41;26.00;;;3.47;;
51686;SDS011;37774;52.192;4.584;2023-03-12T10:33:14;35.50;;;4.32;;
51686;SDS011;37774;52.192;4.584;2023-03-12T10:35:44;44.55;;;5.60;;
51686;SDS011;37774;52.192;4.584;2023-03-12T10:38:14;32.13;;;4.03;;
51686;SDS011;37774;52.192;4.584;2023-03-12T10:40:43;23.50;;;4.28;;
51686;SDS011;37774;52.192;4.584;2023-03-12T10:43:10;30.45;;;4.43;;
51686;SDS011;37774;52.192;4.584;2023-03-12T10:45:37;39.90;;;4.53;;
51686;SDS011;37774;52.192;4.584;2023-03-12T10:48:10;23.27;;;4.00;;
51686;SDS011;37774;52.192;4.584;2023-03-12T10:50:44;29.77;;;4.60;;
51686;SDS011;37774;52.192;4.584;2023-03-12T10:53:28;56.63;;;5.70;;
51686;SDS011;37774;52.192;4.584;2023-03-12T10:56:02;28.98;;;4.18;;
51686;SDS011;37774;52.192;4.584;2023-03-12T10:58:32;44.72;;;5.90;;
51686;SDS011;37774;52.192;4.584;2023-03-12T11:01:01;52.08;;;8.63;;
51686;SDS011;37774;52.192;4.584;2023-03-12T11:03:29;22.25;;;4.55;;
51686;SDS011;37774;52.192;4.584;2023-03-12T11:05:58;24.73;;;4.07;;
51686;SDS011;37774;52.192;4.584;2023-03-12T11:08:27;36.45;;;5.13;;
51686;SDS011;37774;52.192;4.584;2023-03-12T11:10:56;38.15;;;4.30;;
51686;SDS011;37774;52.192;4.584;2023-03-12T11:13:28;31.77;;;4.45;;
51686;SDS011;37774;52.192;4.584;2023-03-12T11:15:57;36.33;;;5.15;;
51686;SDS011;37774;52.192;4.584;2023-03-12T11:18:27;34.75;;;3.70;;
51686;SDS011;37774;52.192;4.584;2023-03-12T11:23:46;33.55;;;4.00;;
51686;SDS011;37774;52.192;4.584;2023-03-12T11:29:02;28.52;;;4.88;;
51686;SDS011;37774;52.192;4.584;2023-03-12T11:31:33;16.52;;;3.95;;
51686;SDS011;37774;52.192;4.584;2023-03-12T11:34:09;25.27;;;3.45;;
51686;SDS011;37774;52.192;4.584;2023-03-12T11:36:47;15.40;;;3.50;;
51686;SDS011;37774;52.192;4.584;2023-03-12T11:39:23;24.15;;;4.93;;
51686;SDS011;37774;52.192;4.584;2023-03-12T11:42:00;45.70;;;6.65;;
51686;SDS011;37774;52.192;4.584;2023-03-12T11:44:40;30.55;;;4.75;;
51686;SDS011;37774;52.192;4.584;2023-03-12T11:47:20;36.90;;;3.92;;
51686;SDS011;37774;52.192;4.584;2023-03-12T11:49:59;37.45;;;5.80;;
51686;SDS011;37774;52.192;4.584;2023-03-12T11:52:34;46.92;;;3.90;;
51686;SDS011;37774;52.192;4.584;2023-03-12T11:55:24;35.55;;;4.78;;
51686;SDS011;37774;52.192;4.584;2023-03-12T11:58:16;26.05;;;4.18;;
51686;SDS011;37774;52.192;4.584;2023-03-12T12:00:53;40.60;;;4.65;;
51686;SDS011;37774;52.192;4.584;2023-03-12T12:06:25;27.88;;;4.57;;
51686;SDS011;37774;52.192;4.584;2023-03-12T12:09:04;38.70;;;5.13;;
51686;SDS011;37774;52.192;4.584;2023-03-12T12:11:45;74.03;;;6.88;;
51686;SDS011;37774;52.192;4.584;2023-03-12T12:14:21;28.88;;;4.45;;
51686;SDS011;37774;52.192;4.584;2023-03-12T12:17:01;32.88;;;4.50;;
51686;SDS011;37774;52.192;4.584;2023-03-12T12:19:41;38.92;;;5.72;;
51686;SDS011;37774;52.192;4.584;2023-03-12T12:22:23;36.97;;;5.00;;
51686;SDS011;37774;52.192;4.584;2023-03-12T12:25:09;19.02;;;3.80;;
51686;SDS011;37774;52.192;4.584;2023-03-12T12:27:48;26.08;;;4.18;;
51686;SDS011;37774;52.192;4.584;2023-03-12T12:30:26;38.00;;;5.07;;
51686;SDS011;37774;52.192;4.584;2023-03-12T12:33:16;33.58;;;5.68;;
51686;SDS011;37774;52.192;4.584;2023-03-12T12:35:53;22.83;;;3.20;;
51686;SDS011;37774;52.192;4.584;2023-03-12T12:38:22;31.88;;;5.13;;
51686;SDS011;37774;52.192;4.584;2023-03-12T12:40:54;36.22;;;5.20;;
51686;SDS011;37774;52.192;4.584;2023-03-12T12:43:30;49.42;;;5.05;;
51686;SDS011;37774;52.192;4.584;2023-03-12T12:46:03;37.25;;;5.07;;
51686;SDS011;37774;52.192;4.584;2023-03-12T12:48:32;31.15;;;4.28;;
51686;SDS011;37774;52.192;4.584;2023-03-12T12:51:04;37.63;;;4.60;;
51686;SDS011;37774;52.192;4.584;2023-03-12T12:53:35;34.50;;;4.50;;
51686;SDS011;37774;52.192;4.584;2023-03-12T12:56:08;49.22;;;6.13;;
51686;SDS011;37774;52.192;4.584;2023-03-12T12:58:55;41.20;;;5.88;;
51686;SDS011;37774;52.192;4.584;2023-03-12T13:01:47;27.80;;;3.83;;
51686;SDS011;37774;52.192;4.584;2023-03-12T13:04:19;28.30;;;3.78;;
51686;SDS011;37774;52.192;4.584;2023-03-12T13:06:55;22.52;;;3.50;;
51686;SDS011;37774;52.192;4.584;2023-03-12T13:09:33;28.77;;;4.55;;
51686;SDS011;37774;52.192;4.584;2023-03-12T13:12:07;24.15;;;3.15;;
51686;SDS011;37774;52.192;4.584;2023-03-12T13:14:40;28.70;;;4.93;;
51686;SDS011;37774;52.192;4.584;2023-03-12T13:17:25;44.63;;;4.85;;
51686;SDS011;37774;52.192;4.584;2023-03-12T13:19:59;25.00;;;4.30;;
51686;SDS011;37774;52.192;4.584;2023-03-12T13:22:44;15.93;;;2.42;;
51686;SDS011;37774;52.192;4.584;2023-03-12T13:25:25;30.05;;;4.10;;
51686;SDS011;37774;52.192;4.584;2023-03-12T13:30:47;22.52;;;3.38;;
51686;SDS011;37774;52.192;4.584;2023-03-12T13:33:15;30.15;;;4.80;;
51686;SDS011;37774;52.192;4.584;2023-03-12T13:36:01;22.95;;;2.40;;
51686;SDS011;37774;52.192;4.584;2023-03-12T13:38:34;26.92;;;3.47;;
51686;SDS011;37774;52.192;4.584;2023-03-12T13:41:03;27.88;;;4.43;;
51686;SDS011;37774;52.192;4.584;2023-03-12T13:43:41;34.78;;;4.75;;
51686;SDS011;37774;52.192;4.584;2023-03-12T13:46:28;19.65;;;3.28;;
51686;SDS011;37774;52.192;4.584;2023-03-12T13:49:02;26.52;;;3.67;;
51686;SDS011;37774;52.192;4.584;2023-03-12T13:51:41;29.33;;;3.35;;
51686;SDS011;37774;52.192;4.584;2023-03-12T13:54:12;15.82;;;3.22;;
51686;SDS011;37774;52.192;4.584;2023-03-12T13:56:45;29.48;;;3.35;;
51686;SDS011;37774;52.192;4.584;2023-03-12T13:59:22;32.83;;;3.50;;
51686;SDS011;37774;52.192;4.584;2023-03-12T14:01:55;25.85;;;4.13;;
51686;SDS011;37774;52.192;4.584;2023-03-12T14:04:28;23.50;;;4.15;;
51686;SDS011;37774;52.192;4.584;2023-03-12T14:07:03;15.50;;;3.08;;
51686;SDS011;37774;52.192;4.584;2023-03-12T14:09:40;19.67;;;3.20;;
51686;SDS011;37774;52.192;4.584;2023-03-12T14:12:12;30.50;;;4.18;;
51686;SDS011;37774;52.192;4.584;2023-03-12T14:14:57;31.30;;;3.67;;
51686;SDS011;37774;52.192;4.584;2023-03-12T14:17:33;21.60;;;3.72;;
51686;SDS011;37774;52.192;4.584;2023-03-12T14:20:04;25.25;;;3.45;;
51686;SDS011;37774;52.192;4.584;2023-03-12T14:22:40;27.05;;;2.95;;
51686;SDS011;37774;52.192;4.584;2023-03-12T14:25:13;22.65;;;3.75;;
51686;SDS011;37774;52.192;4.584;2023-03-12T14:27:43;26.90;;;3.65;;
51686;SDS011;37774;52.192;4.584;2023-03-12T14:30:15;10.70;;;2.85;;
51686;SDS011;37774;52.192;4.584;2023-03-12T14:32:47;29.77;;;4.32;;
51686;SDS011;37774;52.192;4.584;2023-03-12T14:35:18;25.05;;;2.80;;
51686;SDS011;37774;52.192;4.584;2023-03-12T14:37:50;27.15;;;3.92;;
51686;SDS011;37774;52.192;4.584;2023-03-12T14:40:22;20.85;;;3.33;;
51686;SDS011;37774;52.192;4.584;2023-03-12T14:42:58;30.55;;;5.22;;
51686;SDS011;37774;52.192;4.584;2023-03-12T14:45:25;18.63;;;4.32;;
51686;SDS011;37774;52.192;4.584;2023-03-12T14:47:55;31.08;;;5.32;;
51686;SDS011;37774;52.192;4.584;2023-03-12T14:50:23;37.22;;;4.43;;
51686;SDS011;37774;52.192;4.584;2023-03-12T14:52:51;18.48;;;3.28;;
51686;SDS011;37774;52.192;4.584;2023-03-12T14:55:20;32.88;;;4.35;;
51686;SDS011;37774;52.192;4.584;2023-03-12T14:57:49;46.92;;;5.53;;
51686;SDS011;37774;52.192;4.584;2023-03-12T15:00:29;31.10;;;4.47;;
51686;SDS011;37774;52.192;4.584;2023-03-12T15:02:57;46.92;;;4.50;;
51686;SDS011;37774;52.192;4.584;2023-03-12T15:05:29;30.40;;;4.57;;